createdAt,value
2022-12-12T00:00:30.819Z,88.56
2022-12-12T00:02:58.026Z,88.53
2022-12-12T00:05:24.601Z,88.59
2022-12-12T00:07:50.946Z,88.60
2022-12-12T00:10:17.341Z,88.62
2022-12-12T00:12:43.671Z,88.78
2022-12-12T00:15:10.488Z,89.25
2022-12-12T00:17:36.961Z,89.35
2022-12-12T00:20:04.874Z,89.79
2022-12-12T00:22:31.488Z,90.05
2022-12-12T00:24:57.768Z,90.14
2022-12-12T00:27:24.166Z,89.59
2022-12-12T00:29:54.645Z,89.09
2022-12-12T00:32:21.299Z,88.46
2022-12-12T00:34:47.578Z,88.45
2022-12-12T00:37:13.903Z,88.29
2022-12-12T00:39:40.275Z,88.32
2022-12-12T00:42:06.603Z,88.58
2022-12-12T00:44:32.919Z,88.28
2022-12-12T00:46:59.247Z,88.81
2022-12-12T00:49:25.740Z,88.67
2022-12-12T00:51:52.136Z,88.12
2022-12-12T00:54:18.474Z,87.57
2022-12-12T00:56:44.826Z,87.32
2022-12-12T00:59:11.401Z,87.23
2022-12-12T01:01:37.941Z,87.10
2022-12-12T01:04:04.866Z,87.21
2022-12-12T01:06:31.719Z,86.52
2022-12-12T01:08:58.194Z,86.27
2022-12-12T01:11:25.146Z,86.36
2022-12-12T01:13:53.306Z,86.30
2022-12-12T01:16:20.212Z,85.89
2022-12-12T01:18:46.625Z,85.42
2022-12-12T01:21:15.244Z,85.28
2022-12-12T01:23:42.433Z,85.32
2022-12-12T01:26:13.142Z,85.24
2022-12-12T01:28:39.875Z,85.57
2022-12-12T01:31:07.059Z,86.15
2022-12-12T01:33:33.542Z,86.38
2022-12-12T01:35:59.908Z,86.78
2022-12-12T01:38:26.460Z,86.89
2022-12-12T01:40:54.001Z,86.98
2022-12-12T01:43:22.330Z,86.23
2022-12-12T01:45:54.478Z,85.89
2022-12-12T01:48:23.316Z,86.10
2022-12-12T01:50:50.740Z,86.71
2022-12-12T01:53:19.288Z,86.84
2022-12-12T01:55:47.963Z,87.11
2022-12-12T01:58:15.264Z,87.17
2022-12-12T02:00:41.900Z,87.44
2022-12-12T02:03:08.537Z,87.43
2022-12-12T02:05:39.582Z,87.25
2022-12-12T02:08:07.381Z,86.94
2022-12-12T02:10:34.263Z,87.41
2022-12-12T02:13:09.138Z,87.01
2022-12-12T02:15:43.703Z,87.10
2022-12-12T02:18:45.732Z,87.10
2022-12-12T02:21:44.345Z,87.39
2022-12-12T02:24:44.664Z,87.40
2022-12-12T02:27:40.714Z,87.75
2022-12-12T02:30:43.794Z,87.80
2022-12-12T02:33:28.022Z,87.73
2022-12-12T02:36:01.292Z,87.73
2022-12-12T02:38:33.923Z,86.66
2022-12-12T02:41:34.405Z,86.58
2022-12-12T02:44:12.976Z,86.00
2022-12-12T02:46:58.060Z,86.31
2022-12-12T02:49:40.819Z,86.58
2022-12-12T02:52:09.670Z,86.89
2022-12-12T02:54:36.232Z,86.80
2022-12-12T02:57:03.146Z,87.13
2022-12-12T02:59:36.812Z,87.27
2022-12-12T03:02:24.586Z,87.19
2022-12-12T03:05:27.380Z,87.54
2022-12-12T03:08:17.907Z,87.81
2022-12-12T03:10:56.487Z,88.03
2022-12-12T03:13:28.387Z,88.41
2022-12-12T03:16:18.955Z,87.74
2022-12-12T03:18:57.586Z,87.60
2022-12-12T03:21:37.505Z,87.62
2022-12-12T03:24:10.852Z,87.12
2022-12-12T03:26:46.802Z,87.35
2022-12-12T03:29:17.211Z,86.99
2022-12-12T03:31:50.360Z,86.63
2022-12-12T03:34:31.599Z,86.89
2022-12-12T03:37:09.082Z,87.27
2022-12-12T03:39:56.320Z,86.99
2022-12-12T03:42:29.892Z,86.89
2022-12-12T03:45:10.293Z,86.95
2022-12-12T03:47:50.463Z,86.70
2022-12-12T03:50:34.036Z,86.45
2022-12-12T03:53:07.223Z,86.10
2022-12-12T03:55:41.966Z,86.25
2022-12-12T03:58:14.394Z,86.70
2022-12-12T04:00:43.957Z,86.94
2022-12-12T04:03:26.234Z,87.09
2022-12-12T04:06:25.703Z,87.17
2022-12-12T04:09:12.089Z,87.24
2022-12-12T04:12:04.826Z,87.25
2022-12-12T04:14:42.161Z,87.54
2022-12-12T04:17:13.050Z,87.49
2022-12-12T04:20:09.564Z,87.38
2022-12-12T04:23:00.106Z,87.61
2022-12-12T04:25:56.275Z,87.06
2022-12-12T04:28:24.800Z,86.55
2022-12-12T04:30:51.405Z,86.28
2022-12-12T04:33:20.870Z,86.29
2022-12-12T04:35:51.550Z,86.50
2022-12-12T04:38:21.766Z,85.79
2022-12-12T04:40:53.897Z,86.11
2022-12-12T04:43:22.340Z,86.21
2022-12-12T04:45:55.641Z,86.77
2022-12-12T04:48:33.321Z,86.69
2022-12-12T04:51:03.129Z,86.55
2022-12-12T04:53:40.345Z,86.54
2022-12-12T04:56:11.382Z,86.91
2022-12-12T04:58:38.881Z,87.21
2022-12-12T05:01:34.805Z,87.78
2022-12-12T05:04:07.574Z,88.27
2022-12-12T05:06:41.596Z,88.21
2022-12-12T05:09:08.146Z,88.29
2022-12-12T05:11:35.005Z,88.65
2022-12-12T05:14:01.359Z,88.62
2022-12-12T05:16:32.902Z,88.29
2022-12-12T05:18:59.951Z,88.36
2022-12-12T05:21:26.447Z,88.54
2022-12-12T05:23:52.733Z,88.55
2022-12-12T05:26:23.187Z,88.77
2022-12-12T05:28:50.797Z,88.91
2022-12-12T05:31:17.424Z,88.66
2022-12-12T05:33:44.247Z,88.47
2022-12-12T05:36:10.731Z,87.34
2022-12-12T05:38:37.041Z,85.69
2022-12-12T05:41:03.973Z,85.99
2022-12-12T05:43:31.009Z,86.30
2022-12-12T05:45:57.636Z,86.72
2022-12-12T05:48:24.714Z,87.02
2022-12-12T05:50:51.808Z,87.30
2022-12-12T05:53:18.697Z,87.63
2022-12-12T05:55:45.098Z,87.69
2022-12-12T05:58:11.761Z,88.03
2022-12-12T06:00:38.140Z,87.98
2022-12-12T06:03:04.458Z,87.96
2022-12-12T06:05:31.189Z,88.15
2022-12-12T06:07:57.547Z,88.43
2022-12-12T06:10:23.915Z,88.73
2022-12-12T06:12:50.330Z,88.72
2022-12-12T06:15:17.046Z,88.58
2022-12-12T06:17:43.353Z,88.35
2022-12-12T06:20:10.048Z,88.24
2022-12-12T06:22:36.380Z,88.18
2022-12-12T06:25:03.441Z,88.75
2022-12-12T06:27:29.774Z,88.56
2022-12-12T06:29:56.138Z,88.77
2022-12-12T06:32:22.434Z,88.69
2022-12-12T06:34:48.744Z,88.82
2022-12-12T06:37:17.376Z,88.67
2022-12-12T06:39:44.669Z,87.62
2022-12-12T06:42:10.952Z,86.53
2022-12-12T06:44:37.284Z,86.37
2022-12-12T06:47:03.607Z,86.10
2022-12-12T06:49:29.984Z,86.54
2022-12-12T06:51:56.518Z,86.50
2022-12-12T06:54:23.545Z,86.59
2022-12-12T06:56:49.875Z,87.14
2022-12-12T06:59:16.986Z,87.39
2022-12-12T07:01:43.725Z,87.64
2022-12-12T07:04:12.046Z,87.89
2022-12-12T07:06:38.384Z,88.00
2022-12-12T07:09:04.985Z,88.20
2022-12-12T07:11:31.336Z,88.19
2022-12-12T07:13:59.603Z,87.90
2022-12-12T07:16:26.048Z,88.16
2022-12-12T07:18:52.751Z,88.19
2022-12-12T07:21:20.996Z,88.52
2022-12-12T07:23:48.045Z,88.32
2022-12-12T07:26:20.128Z,88.72
2022-12-12T07:28:47.298Z,88.53
2022-12-12T07:31:16.192Z,88.39
2022-12-12T07:33:44.404Z,88.19
2022-12-12T07:36:12.506Z,88.21
2022-12-12T07:38:39.632Z,87.92
2022-12-12T07:41:12.376Z,87.77
2022-12-12T07:43:43.678Z,86.99
2022-12-12T07:46:14.733Z,86.73
2022-12-12T07:48:41.878Z,86.14
2022-12-12T07:51:08.256Z,85.27
2022-12-12T07:53:34.614Z,85.11
2022-12-12T07:56:04.954Z,85.35
2022-12-12T07:58:31.285Z,85.51
2022-12-12T08:00:57.585Z,85.25
2022-12-12T08:03:26.313Z,83.70
2022-12-12T08:05:52.667Z,83.05
2022-12-12T08:08:19.050Z,82.57
2022-12-12T08:10:45.487Z,81.96
2022-12-12T08:13:11.907Z,82.18
2022-12-12T08:15:38.394Z,82.11
2022-12-12T08:18:04.857Z,81.82
2022-12-12T08:20:31.210Z,82.27
2022-12-12T08:22:58.729Z,82.60
2022-12-12T08:25:25.062Z,82.60
2022-12-12T08:27:51.387Z,82.59
2022-12-12T08:30:17.782Z,82.15
2022-12-12T08:32:44.093Z,82.12
2022-12-12T08:35:10.605Z,82.25
2022-12-12T08:37:37.084Z,82.47
2022-12-12T08:40:03.873Z,82.82
2022-12-12T08:42:30.306Z,82.49
2022-12-12T08:44:56.601Z,81.99
2022-12-12T08:47:23.039Z,81.37
2022-12-12T08:49:50.079Z,80.95
2022-12-12T08:52:16.387Z,80.34
2022-12-12T08:54:42.731Z,80.82
2022-12-12T08:57:09.045Z,77.87
2022-12-12T08:59:35.598Z,78.43
2022-12-12T09:02:02.040Z,79.06
2022-12-12T09:04:28.568Z,77.51
2022-12-12T09:06:55.108Z,77.73
2022-12-12T09:09:21.477Z,77.73
2022-12-12T09:11:47.783Z,78.44
2022-12-12T09:14:14.118Z,76.83
2022-12-12T09:16:40.473Z,77.20
2022-12-12T09:19:06.897Z,77.23
2022-12-12T09:21:33.246Z,77.56
2022-12-12T09:23:59.654Z,77.00
2022-12-12T09:26:25.946Z,77.79
2022-12-12T09:28:52.271Z,78.22
2022-12-12T09:31:18.987Z,77.93
2022-12-12T09:33:45.414Z,77.13
2022-12-12T09:36:12.203Z,76.80
2022-12-12T09:38:38.761Z,75.64
2022-12-12T09:41:24.566Z,73.92
2022-12-12T09:44:06.187Z,73.79
2022-12-12T09:46:35.075Z,75.13
2022-12-12T09:49:16.786Z,75.36
2022-12-12T09:51:48.034Z,73.85
2022-12-12T09:54:17.852Z,73.27
2022-12-12T09:56:59.278Z,73.39
2022-12-12T09:59:34.593Z,73.35
2022-12-12T10:02:38.267Z,73.49
2022-12-12T10:05:17.153Z,72.84
2022-12-12T10:07:53.139Z,72.95
2022-12-12T10:10:29.762Z,71.47
2022-12-12T10:12:58.314Z,71.83
2022-12-12T10:15:46.639Z,72.31
2022-12-12T10:18:20.814Z,72.88
2022-12-12T10:20:51.112Z,72.43
2022-12-12T10:23:39.936Z,72.19
2022-12-12T10:26:11.394Z,72.42
2022-12-12T10:28:38.164Z,72.93
2022-12-12T10:31:33.699Z,73.56
2022-12-12T10:34:12.094Z,73.50
2022-12-12T10:37:03.831Z,73.71
2022-12-12T10:40:01.202Z,73.37
2022-12-12T10:42:59.499Z,73.60
2022-12-12T10:46:17.636Z,72.71
2022-12-12T10:48:46.888Z,71.08
2022-12-12T10:51:17.742Z,71.33
2022-12-12T10:53:44.212Z,71.71
2022-12-12T10:56:18.578Z,70.91
2022-12-12T10:58:53.180Z,71.83
2022-12-12T11:01:44.996Z,72.52
2022-12-12T11:04:14.661Z,70.67
2022-12-12T11:06:50.630Z,71.89
2022-12-12T11:09:24.516Z,72.16
2022-12-12T11:12:11.857Z,71.78
2022-12-12T11:14:40.753Z,72.08
2022-12-12T11:17:28.940Z,71.89
2022-12-12T11:19:58.154Z,72.10
2022-12-12T11:22:25.989Z,71.93
2022-12-12T11:24:53.158Z,72.06
2022-12-12T11:27:31.373Z,72.11
2022-12-12T11:30:00.062Z,72.63
2022-12-12T11:32:31.049Z,71.83
2022-12-12T11:35:03.683Z,72.53
2022-12-12T11:37:53.501Z,72.50
2022-12-12T11:40:24.719Z,72.85
2022-12-12T11:42:51.290Z,72.75
2022-12-12T11:45:17.497Z,72.56
2022-12-12T11:47:46.134Z,72.91
2022-12-12T11:50:25.230Z,73.10
2022-12-12T11:52:54.401Z,72.78
2022-12-12T11:55:41.054Z,72.19
2022-12-12T11:58:27.922Z,72.27
2022-12-12T12:01:06.624Z,72.44
2022-12-12T12:04:18.078Z,72.97
2022-12-12T12:07:08.367Z,72.90
2022-12-12T12:09:53.372Z,72.96
2022-12-12T12:13:22.054Z,72.40
2022-12-12T12:16:07.137Z,72.18
2022-12-12T12:19:05.791Z,71.32
2022-12-12T12:22:01.459Z,70.02
2022-12-12T12:24:36.925Z,70.41
2022-12-12T12:27:22.069Z,70.41
2022-12-12T12:30:06.644Z,69.75
2022-12-12T12:32:51.786Z,67.99
2022-12-12T12:35:24.070Z,67.85
2022-12-12T12:38:08.676Z,67.33
2022-12-12T12:41:04.364Z,67.09
2022-12-12T12:44:08.335Z,68.02
2022-12-12T12:46:40.718Z,67.70
2022-12-12T12:49:27.344Z,66.68
2022-12-12T12:52:00.380Z,66.80
2022-12-12T12:54:47.028Z,67.45
2022-12-12T12:57:13.290Z,66.74
2022-12-12T12:59:45.667Z,67.73
2022-12-12T13:02:26.799Z,67.06
2022-12-12T13:05:09.289Z,67.63
2022-12-12T13:08:05.682Z,67.35
2022-12-12T13:10:33.537Z,68.28
2022-12-12T13:13:22.781Z,68.19
2022-12-12T13:16:13.010Z,67.99
2022-12-12T13:18:48.074Z,67.85
2022-12-12T13:21:30.253Z,67.83
2022-12-12T13:24:05.659Z,68.31
2022-12-12T13:26:44.636Z,68.56
2022-12-12T13:29:35.618Z,68.43
2022-12-12T13:32:29.357Z,68.12
2022-12-12T13:34:59.643Z,68.74
2022-12-12T13:37:26.400Z,68.70
2022-12-12T13:40:07.352Z,68.75
2022-12-12T13:42:56.166Z,69.61
2022-12-12T13:45:35.965Z,70.34
2022-12-12T13:48:10.415Z,70.45
2022-12-12T13:50:36.832Z,71.27
2022-12-12T13:53:06.013Z,71.30
2022-12-12T13:55:33.858Z,71.59
2022-12-12T13:58:02.112Z,71.61
2022-12-12T14:00:30.181Z,72.04
2022-12-12T14:03:01.909Z,71.91
2022-12-12T14:05:30.114Z,72.17
2022-12-12T14:08:05.515Z,72.27
2022-12-12T14:10:36.228Z,72.42
2022-12-12T14:13:21.359Z,72.07
2022-12-12T14:15:50.340Z,71.79
2022-12-12T14:18:21.629Z,72.07
2022-12-12T14:21:12.116Z,72.39
2022-12-12T14:23:42.345Z,72.76
2022-12-12T14:26:26.987Z,72.60
2022-12-12T14:29:23.149Z,72.48
2022-12-12T14:32:07.717Z,72.57
2022-12-12T14:34:49.638Z,73.28
2022-12-12T14:37:32.366Z,73.43
2022-12-12T14:40:01.404Z,73.98
2022-12-12T14:43:19.383Z,74.02
2022-12-12T14:45:32.824Z,73.73
2022-12-12T14:48:25.030Z,73.93
2022-12-12T14:51:09.184Z,74.72
2022-12-12T14:53:45.860Z,74.81
2022-12-12T14:56:18.102Z,75.04
2022-12-12T14:58:57.277Z,75.12
2022-12-12T15:01:32.490Z,75.76
2022-12-12T15:04:00.330Z,75.68
2022-12-12T15:06:29.571Z,75.59
2022-12-12T15:09:06.025Z,75.61
2022-12-12T15:11:32.739Z,74.76
2022-12-12T15:14:01.391Z,74.70
2022-12-12T15:16:49.021Z,74.49
2022-12-12T15:19:23.882Z,74.96
2022-12-12T15:21:50.306Z,75.41
2022-12-12T15:24:20.676Z,75.71
2022-12-12T15:26:49.946Z,75.91
2022-12-12T15:29:23.460Z,76.36
2022-12-12T15:31:57.215Z,76.13
2022-12-12T15:34:36.226Z,75.69
2022-12-12T15:37:29.765Z,75.74
2022-12-12T15:40:02.448Z,75.87
2022-12-12T15:42:29.196Z,75.72
2022-12-12T15:44:56.191Z,76.30
2022-12-12T15:47:22.570Z,76.29
2022-12-12T15:49:48.943Z,76.50
2022-12-12T15:52:26.118Z,76.70
2022-12-12T15:54:55.454Z,76.52
2022-12-12T15:57:25.115Z,77.27
2022-12-12T15:59:59.985Z,76.95
2022-12-12T16:02:28.602Z,77.16
2022-12-12T16:05:19.197Z,76.02
2022-12-12T16:07:45.691Z,75.78
2022-12-12T16:10:12.089Z,76.17
2022-12-12T16:12:58.411Z,76.53
2022-12-12T16:15:36.359Z,76.73
2022-12-12T16:18:16.723Z,76.00
2022-12-12T16:21:03.493Z,76.32
2022-12-12T16:23:32.931Z,76.08
2022-12-12T16:25:59.475Z,75.94
2022-12-12T16:28:30.083Z,76.21
2022-12-12T16:30:59.081Z,76.63
2022-12-12T16:33:39.871Z,76.54
2022-12-12T16:36:08.762Z,76.10
2022-12-12T16:38:36.820Z,76.65
2022-12-12T16:41:07.850Z,76.63
2022-12-12T16:43:34.858Z,76.75
2022-12-12T16:46:01.274Z,76.99
2022-12-12T16:48:33.262Z,76.82
2022-12-12T16:51:05.243Z,76.92
2022-12-12T16:53:33.215Z,77.64
2022-12-12T16:55:59.561Z,78.18
2022-12-12T16:58:25.962Z,78.83
2022-12-12T17:00:53.134Z,78.95
2022-12-12T17:03:20.205Z,78.69
2022-12-12T17:05:47.656Z,78.61
2022-12-12T17:08:17.959Z,78.40
2022-12-12T17:10:46.623Z,78.63
2022-12-12T17:13:17.289Z,78.72
2022-12-12T17:15:43.656Z,78.63
2022-12-12T17:18:10.094Z,78.65
2022-12-12T17:20:38.173Z,77.87
2022-12-12T17:23:28.791Z,77.77
2022-12-12T17:26:02.511Z,77.05
2022-12-12T17:28:30.524Z,77.96
2022-12-12T17:30:56.839Z,78.54
2022-12-12T17:33:23.175Z,79.11
2022-12-12T17:36:19.660Z,79.41
2022-12-12T17:38:46.042Z,79.23
2022-12-12T17:41:12.690Z,79.25
2022-12-12T17:43:40.316Z,78.67
2022-12-12T17:46:13.814Z,79.04
2022-12-12T17:48:42.471Z,79.16
2022-12-12T17:51:11.000Z,78.78
2022-12-12T17:53:38.493Z,79.16
2022-12-12T17:56:10.415Z,79.50
2022-12-12T17:58:39.516Z,80.00
2022-12-12T18:01:16.744Z,80.25
2022-12-12T18:03:46.895Z,80.46
2022-12-12T18:06:14.432Z,80.12
2022-12-12T18:08:41.535Z,80.41
2022-12-12T18:11:17.431Z,80.11
2022-12-12T18:13:45.070Z,79.47
2022-12-12T18:16:12.943Z,78.78
2022-12-12T18:18:39.672Z,78.73
2022-12-12T18:21:12.895Z,78.46
2022-12-12T18:23:42.649Z,78.63
2022-12-12T18:26:21.662Z,78.82
2022-12-12T18:28:50.872Z,79.05
2022-12-12T18:31:17.346Z,79.19
2022-12-12T18:33:43.847Z,78.77
2022-12-12T18:36:14.125Z,78.86
2022-12-12T18:38:45.760Z,78.90
2022-12-12T18:41:14.895Z,79.03
2022-12-12T18:43:41.531Z,78.97
2022-12-12T18:46:10.360Z,79.06
2022-12-12T18:48:39.211Z,79.46
2022-12-12T18:51:07.476Z,79.95
2022-12-12T18:53:34.608Z,80.02
2022-12-12T18:56:04.937Z,80.98
2022-12-12T18:58:31.213Z,81.63
2022-12-12T19:01:09.932Z,81.85
2022-12-12T19:03:37.797Z,82.11
2022-12-12T19:06:09.510Z,82.76
2022-12-12T19:08:36.246Z,82.78
2022-12-12T19:11:03.552Z,83.29
2022-12-12T19:13:30.669Z,83.88
2022-12-12T19:15:57.924Z,84.43
2022-12-12T19:18:24.221Z,84.67
2022-12-12T19:20:50.489Z,84.47
2022-12-12T19:23:16.815Z,84.52
2022-12-12T19:25:43.378Z,84.92
2022-12-12T19:28:11.891Z,84.90
2022-12-12T19:30:41.324Z,85.16
2022-12-12T19:33:07.957Z,85.82
2022-12-12T19:35:38.155Z,85.90
2022-12-12T19:38:04.499Z,86.75
2022-12-12T19:40:33.190Z,86.66
2022-12-12T19:42:59.501Z,86.84
2022-12-12T19:45:25.835Z,87.09
2022-12-12T19:47:52.173Z,87.58
2022-12-12T19:50:18.529Z,87.96
2022-12-12T19:52:44.883Z,87.97
2022-12-12T19:55:11.161Z,88.04
2022-12-12T19:57:37.552Z,88.42
2022-12-12T20:00:04.576Z,88.99
2022-12-12T20:02:30.903Z,89.13
2022-12-12T20:04:57.237Z,89.41
2022-12-12T20:07:23.575Z,89.14
2022-12-12T20:09:49.980Z,89.28
2022-12-12T20:12:16.571Z,89.47
2022-12-12T20:14:42.874Z,89.69
2022-12-12T20:17:09.285Z,89.74
2022-12-12T20:19:35.630Z,89.98
2022-12-12T20:22:03.052Z,90.37
2022-12-12T20:24:31.249Z,90.55
2022-12-12T20:26:59.295Z,90.58
2022-12-12T20:29:25.754Z,90.68
2022-12-12T20:31:52.139Z,90.88
2022-12-12T20:34:24.356Z,90.83
2022-12-12T20:36:51.628Z,90.81
2022-12-12T20:39:22.282Z,90.96
2022-12-12T20:41:50.349Z,91.19
2022-12-12T20:44:17.016Z,90.79
2022-12-12T20:46:46.005Z,91.25
2022-12-12T20:49:15.722Z,90.99
2022-12-12T20:51:58.601Z,91.28
2022-12-12T20:54:29.403Z,91.48
2022-12-12T20:56:57.379Z,91.68
2022-12-12T20:59:24.599Z,91.39
2022-12-12T21:01:51.522Z,91.73
2022-12-12T21:04:17.990Z,91.80
2022-12-12T21:06:48.297Z,92.03
2022-12-12T21:09:22.758Z,92.06
2022-12-12T21:11:52.007Z,92.14
2022-12-12T21:14:18.339Z,92.00
2022-12-12T21:16:44.631Z,92.09
2022-12-12T21:19:13.493Z,92.10
2022-12-12T21:21:41.633Z,92.07
2022-12-12T21:24:08.040Z,92.08
2022-12-12T21:26:35.768Z,92.22
2022-12-12T21:29:03.178Z,92.24
2022-12-12T21:31:32.524Z,92.50
2022-12-12T21:33:59.579Z,92.66
2022-12-12T21:36:27.892Z,93.12
2022-12-12T21:38:55.498Z,93.18
2022-12-12T21:41:23.048Z,93.22
2022-12-12T21:43:50.585Z,92.83
2022-12-12T21:46:23.265Z,93.14
2022-12-12T21:49:10.175Z,92.88
2022-12-12T21:51:37.108Z,93.12
2022-12-12T21:54:05.336Z,93.04
2022-12-12T21:57:25.229Z,93.11
2022-12-12T21:59:51.781Z,93.13
2022-12-12T22:02:18.102Z,92.81
2022-12-12T22:04:44.476Z,92.76
2022-12-12T22:07:12.069Z,92.91
2022-12-12T22:09:39.714Z,93.20
2022-12-12T22:12:07.183Z,93.33
2022-12-12T22:14:35.059Z,93.34
2022-12-12T22:17:04.073Z,93.30
2022-12-12T22:19:30.642Z,93.47
2022-12-12T22:21:56.957Z,93.41
2022-12-12T22:24:23.478Z,93.54
2022-12-12T22:26:50.168Z,93.76
2022-12-12T22:29:18.778Z,93.84
2022-12-12T22:31:45.482Z,93.93
2022-12-12T22:34:17.801Z,93.78
2022-12-12T22:36:44.952Z,93.55
2022-12-12T22:39:15.286Z,93.56
2022-12-12T22:41:41.742Z,93.87
2022-12-12T22:44:08.111Z,93.52
2022-12-12T22:46:36.995Z,93.51
2022-12-12T22:49:05.657Z,93.81
2022-12-12T22:51:33.809Z,93.92
2022-12-12T22:54:02.510Z,94.00
2022-12-12T22:56:30.100Z,93.99
2022-12-12T22:58:56.404Z,94.04
2022-12-12T23:01:24.440Z,94.12
2022-12-12T23:03:51.931Z,94.32
2022-12-12T23:06:36.619Z,94.54
2022-12-12T23:09:15.006Z,94.61
2022-12-12T23:11:41.887Z,94.47
2022-12-12T23:14:14.212Z,94.66
2022-12-12T23:16:41.090Z,94.51
2022-12-12T23:19:09.000Z,94.36
2022-12-12T23:21:37.059Z,94.41
2022-12-12T23:24:05.063Z,94.37
2022-12-12T23:26:32.728Z,93.80
2022-12-12T23:28:59.191Z,93.65
2022-12-12T23:31:29.567Z,93.68
2022-12-12T23:33:58.971Z,93.64
2022-12-12T23:36:26.079Z,93.42
2022-12-12T23:39:01.409Z,93.44
2022-12-12T23:41:28.683Z,93.13
2022-12-12T23:43:55.747Z,92.93
2022-12-12T23:46:29.204Z,93.17
2022-12-12T23:48:57.487Z,93.37
2022-12-12T23:51:25.211Z,93.28
2022-12-12T23:53:51.633Z,93.61
2022-12-12T23:56:17.950Z,94.05
2022-12-12T23:58:44.667Z,93.91
